Time;durP1;ratioP1;P1;durP2;ratioP2;P2;SDS_P1;SDS_P2;PMS_P1;PMS_P2;Temp;Humidity;BMP_temperature;BMP_pressure;BME280_temperature;BME280_humidity;BME280_pressure;Samples;Min_cycle;Max_cycle;Signal;HPM_P1;HPM_P2
2021/12/26 00:00:17;;;;;;;111.78;53.10;;;;;;;-10.14;100.00;99519.06;5052847;28;20025;-80
2021/12/26 00:02:43;;;;;;;86.35;45.60;;;;;;;-9.96;100.00;99557.47;5051677;28;20114;-80
2021/12/26 00:05:09;;;;;;;86.32;44.85;;;;;;;-10.05;100.00;99542.91;5052850;28;20376;-80
2021/12/26 00:07:35;;;;;;;92.45;48.30;;;;;;;-10.25;100.00;99508.66;5052589;28;20061;-80
2021/12/26 00:10:03;;;;;;;92.28;47.95;;;;;;;-10.05;100.00;99545.41;5053119;28;20036;-80
2021/12/26 00:12:28;;;;;;;83.65;47.22;;;;;;;-10.15;100.00;99522.41;5051214;28;20111;-80
2021/12/26 00:14:53;;;;;;;78.88;45.50;;;;;;;-10.00;100.00;99544.72;5051485;28;20112;-80
2021/12/26 00:17:19;;;;;;;84.55;45.88;;;;;;;-9.99;100.00;99546.41;5051130;28;20495;-80
2021/12/26 00:19:44;;;;;;;86.05;46.75;;;;;;;-10.22;100.00;99515.44;5051133;28;20033;-80
2021/12/26 00:22:10;;;;;;;67.18;40.03;;;;;;;-10.23;100.00;99509.53;5051173;28;20082;-80
2021/12/26 00:24:35;;;;;;;65.57;37.30;;;;;;;-10.12;100.00;99532.56;5052729;28;20033;-80
2021/12/26 00:27:01;;;;;;;65.07;36.42;;;;;;;-10.25;100.00;99515.34;5051316;28;20078;-80
2021/12/26 00:29:27;;;;;;;61.10;36.72;;;;;;;-10.14;100.00;99536.69;5051037;28;20017;-80
2021/12/26 00:31:52;;;;;;;64.43;35.78;;;;;;;-10.16;100.00;99528.22;5051193;28;20384;-80
2021/12/26 00:34:18;;;;;;;65.00;34.63;;;;;;;-10.31;100.00;99505.94;5050887;28;20036;-79
2021/12/26 00:36:43;;;;;;;60.78;33.63;;;;;;;-10.11;100.00;99544.34;5050814;28;20029;-80
2021/12/26 00:39:09;;;;;;;57.25;32.75;;;;;;;-10.24;100.00;99519.56;5052330;28;20024;-81
2021/12/26 00:41:39;;;;;;;58.15;29.33;;;;;;;-10.25;100.00;99521.25;5052141;28;20035;-80
2021/12/26 00:44:05;;;;;;;50.20;29.58;;;;;;;-10.36;100.00;99500.75;5052175;28;20492;-81
2021/12/26 00:46:31;;;;;;;58.80;31.42;;;;;;;-10.26;100.00;99521.19;5050631;28;20572;-81
2021/12/26 00:48:56;;;;;;;71.72;36.95;;;;;;;-10.17;100.00;99547.50;5051970;28;20020;-80
2021/12/26 00:51:22;;;;;;;62.97;34.63;;;;;;;-10.18;100.00;99542.44;5050717;28;20037;-81
2021/12/26 00:53:47;;;;;;;55.28;34.05;;;;;;;-10.16;100.00;99548.38;5052156;28;20025;-80
2021/12/26 00:56:12;;;;;;;65.05;35.72;;;;;;;-10.14;100.00;99549.28;5051839;28;20049;-81
2021/12/26 00:58:38;;;;;;;62.80;35.08;;;;;;;-10.35;100.00;99521.75;5051571;28;20058;-81
2021/12/26 01:01:03;;;;;;;60.70;33.78;;;;;;;-10.28;100.00;99536.25;5051992;28;20032;-79
2021/12/26 01:03:29;;;;;;;62.67;36.15;;;;;;;-10.31;100.00;99526.09;5051685;28;20496;-79
2021/12/26 01:05:56;;;;;;;61.63;34.13;;;;;;;-10.20;100.00;99541.50;5051821;28;20556;-80
2021/12/26 01:08:29;;;;;;;68.97;35.50;;;;;;;-10.29;100.00;99529.50;5051573;28;20029;-80
2021/12/26 01:11:02;;;;;;;61.00;33.83;;;;;;;-10.36;100.00;99525.06;5051990;28;20115;-79
2021/12/26 01:13:32;;;;;;;63.38;35.55;;;;;;;-10.33;100.00;99530.19;5050178;28;20035;-80
2021/12/26 01:16:00;;;;;;;69.43;37.78;;;;;;;-10.29;100.00;99542.09;5051558;28;20050;-80
2021/12/26 01:18:29;;;;;;;60.15;34.38;;;;;;;-10.35;100.00;99535.19;5049942;28;20032;-80
2021/12/26 01:21:06;;;;;;;58.17;32.20;;;;;;;-10.28;100.00;99540.41;5050404;28;20024;-80
2021/12/26 01:23:33;;;;;;;49.80;29.08;;;;;;;-10.25;100.00;99553.13;5050173;28;20112;-80
2021/12/26 01:25:59;;;;;;;50.65;28.27;;;;;;;-10.27;100.00;99557.28;5051665;28;20029;-80
2021/12/26 01:28:28;;;;;;;52.05;30.15;;;;;;;-10.40;100.00;99538.38;5050045;28;20036;-80
2021/12/26 01:30:56;;;;;;;58.03;32.17;;;;;;;-10.46;100.00;99535.63;5050786;28;20087;-79
2021/12/26 01:33:21;;;;;;;65.13;33.03;;;;;;;-10.34;100.00;99554.53;5050135;28;20032;-80
2021/12/26 01:35:48;;;;;;;52.65;30.13;;;;;;;-10.32;100.00;99547.03;5050379;28;20077;-80
2021/12/26 01:38:14;;;;;;;53.17;29.00;;;;;;;-10.37;100.00;99551.88;5051500;28;20033;-80
2021/12/26 01:40:48;;;;;;;45.40;26.70;;;;;;;-10.46;100.00;99533.09;5051335;28;20481;-80
2021/12/26 01:43:14;;;;;;;43.78;25.63;;;;;;;-10.37;100.00;99551.03;5051548;28;20033;-80
2021/12/26 01:45:41;;;;;;;47.30;27.75;;;;;;;-10.50;100.00;99526.25;5051503;28;20034;-80
2021/12/26 01:48:07;;;;;;;52.58;28.73;;;;;;;-10.46;100.00;99526.41;5050155;28;20025;-80
2021/12/26 01:50:34;;;;;;;49.97;27.73;;;;;;;-10.36;100.00;99543.56;5051418;28;20049;-80
2021/12/26 01:52:59;;;;;;;50.17;29.35;;;;;;;-10.49;100.00;99526.31;5050035;28;20508;-80
2021/12/26 01:55:40;;;;;;;49.47;27.35;;;;;;;-10.36;100.00;99553.63;5051072;28;20116;-80
2021/12/26 01:58:08;;;;;;;49.53;27.88;;;;;;;-10.50;100.00;99521.19;5051518;28;20045;-80
2021/12/26 02:00:36;;;;;;;53.78;29.73;;;;;;;-10.46;100.00;99531.44;5051176;28;20021;-80
2021/12/26 02:03:02;;;;;;;58.40;30.17;;;;;;;-10.45;100.00;99520.59;5051407;28;20082;-80
2021/12/26 02:05:27;;;;;;;47.70;27.90;;;;;;;-10.44;100.00;99527.31;5051130;28;20104;-80
2021/12/26 02:07:53;;;;;;;47.38;25.67;;;;;;;-10.43;100.00;99524.00;5049947;28;20032;-81
2021/12/26 02:10:18;;;;;;;47.15;26.45;;;;;;;-10.41;100.00;99534.97;5051227;28;20031;-79
2021/12/26 02:12:43;;;;;;;48.75;27.52;;;;;;;-10.46;100.00;99515.47;5053677;28;20032;-80
2021/12/26 02:15:10;;;;;;;50.10;28.45;;;;;;;-10.36;100.00;99528.44;5053774;28;20398;-80
2021/12/26 02:17:35;;;;;;;53.95;32.70;;;;;;;-10.37;100.00;99525.84;5054779;28;20479;-80
2021/12/26 02:20:18;;;;;;;68.88;36.58;;;;;;;-10.45;100.00;99517.19;5054820;28;20031;-80
2021/12/26 02:22:48;;;;;;;55.15;31.80;;;;;;;-10.37;100.00;99528.38;5054473;28;20025;-80
2021/12/26 02:28:09;;;;;;;47.80;27.17;;;;;;;-10.34;100.00;99533.53;5032326;28;20033;-80
2021/12/26 02:30:35;;;;;;;46.10;25.15;;;;;;;-10.47;100.00;99508.72;5032268;28;20044;-80
2021/12/26 02:33:03;;;;;;;45.78;25.23;;;;;;;-10.35;100.00;99530.16;5032335;28;20041;-80
2021/12/26 02:35:29;;;;;;;54.15;28.48;;;;;;;-10.38;100.00;99527.53;5031842;28;20037;-80
2021/12/26 02:37:55;;;;;;;67.07;32.15;;;;;;;-10.50;100.00;99509.47;5015510;28;20037;-80
2021/12/26 02:40:20;;;;;;;62.17;29.65;;;;;;;-10.46;100.00;99506.25;5032244;28;20041;-79
2021/12/26 02:42:46;;;;;;;62.95;30.08;;;;;;;-10.46;100.00;99507.91;5031928;28;20446;-80
2021/12/26 02:45:12;;;;;;;52.50;27.65;;;;;;;-10.39;100.00;99525.81;5015465;28;20068;-80
2021/12/26 02:47:41;;;;;;;56.58;28.45;;;;;;;-10.41;100.00;99522.38;5031787;28;20118;-80
2021/12/26 02:50:14;;;;;;;51.83;26.45;;;;;;;-10.57;100.00;99498.34;5031886;28;20087;-80
2021/12/26 02:52:40;;;;;;;51.53;27.02;;;;;;;-10.46;100.00;99512.94;5031699;28;20104;-80
2021/12/26 02:55:07;;;;;;;50.55;27.05;;;;;;;-10.38;100.00;99530.03;5031928;28;20416;-80
2021/12/26 02:57:33;;;;;;;47.88;25.85;;;;;;;-10.56;100.00;99502.56;5031399;28;20464;-80
2021/12/26 03:00:07;;;;;;;60.75;29.73;;;;;;;-10.38;100.00;99536.75;5031980;28;20109;-80
2021/12/26 03:02:32;;;;;;;65.88;30.92;;;;;;;-10.42;100.00;99533.25;5031323;28;20056;-80
2021/12/26 03:04:57;;;;;;;56.10;29.38;;;;;;;-10.46;100.00;99528.06;5046917;28;20129;-80
2021/12/26 03:07:23;;;;;;;52.92;29.85;;;;;;;-10.61;100.00;99509.13;5054191;28;20491;-80
2021/12/26 03:09:50;;;;;;;55.63;29.35;;;;;;;-10.47;100.00;99532.25;5053889;28;20025;-80
2021/12/26 03:12:15;;;;;;;56.55;30.52;;;;;;;-10.49;100.00;99540.53;5053968;28;20029;-80
2021/12/26 03:14:41;;;;;;;68.47;32.85;;;;;;;-10.53;100.00;99541.22;5050904;28;20570;-80
2021/12/26 03:17:07;;;;;;;61.15;32.10;;;;;;;-10.54;100.00;99529.44;5034578;28;20033;-80
2021/12/26 03:19:35;;;;;;;43.88;23.13;;;;;;;-10.56;100.00;99526.88;5034306;28;20045;-80
2021/12/26 03:22:01;;;;;;;42.70;23.52;;;;;;;-10.45;100.00;99542.34;5050076;28;20107;-80
2021/12/26 03:24:26;;;;;;;35.22;21.45;;;;;;;-10.53;100.00;99536.19;5051108;28;20475;-80
2021/12/26 03:27:03;;;;;;;37.58;21.15;;;;;;;-10.50;100.00;99539.69;5051297;28;20033;-81
2021/12/26 03:29:29;;;;;;;35.00;21.20;;;;;;;-10.64;100.00;99525.75;5050911;28;20029;-80
2021/12/26 03:31:54;;;;;;;33.85;21.08;;;;;;;-10.56;100.00;99537.81;5051117;28;20047;-81
2021/12/26 03:34:20;;;;;;;34.92;18.70;;;;;;;-10.61;100.00;99524.22;5051107;28;20052;-80
2021/12/26 03:36:50;;;;;;;34.53;19.75;;;;;;;-10.60;100.00;99538.50;5050727;28;20687;-80
2021/12/26 03:39:15;;;;;;;38.55;20.77;;;;;;;-10.57;100.00;99543.66;5034317;28;20029;-80
2021/12/26 03:41:40;;;;;;;37.13;21.20;;;;;;;-10.69;100.00;99525.59;5034074;28;20029;-80
2021/12/26 03:44:06;;;;;;;32.25;19.45;;;;;;;-10.53;100.00;99559.72;5051072;28;20052;-80
2021/12/26 03:46:31;;;;;;;42.17;20.88;;;;;;;-10.54;100.00;99562.16;5052839;28;20037;-80
2021/12/26 03:49:00;;;;;;;37.38;19.00;;;;;;;-10.57;100.00;99546.16;5053891;28;20035;-80
2021/12/26 03:51:26;;;;;;;31.50;17.42;;;;;;;-10.55;100.00;99553.75;5052215;28;20061;-80
2021/12/26 03:53:51;;;;;;;33.67;18.45;;;;;;;-10.62;100.00;99542.63;5053659;28;20056;-80
2021/12/26 03:56:17;;;;;;;37.20;19.77;;;;;;;-10.67;100.00;99541.59;5053236;28;20053;-80
2021/12/26 03:58:42;;;;;;;33.25;19.58;;;;;;;-10.57;100.00;99556.25;5053108;28;20040;-80
2021/12/26 04:01:08;;;;;;;38.70;20.88;;;;;;;-10.77;100.00;99521.09;5053394;28;20041;-80
2021/12/26 04:03:34;;;;;;;35.03;19.85;;;;;;;-10.56;100.00;99559.59;5051757;28;20048;-80
2021/12/26 04:06:00;;;;;;;41.97;23.10;;;;;;;-10.71;100.00;99528.84;5053217;28;20032;-80
2021/12/26 04:08:25;;;;;;;55.67;24.25;;;;;;;-10.65;100.00;99541.66;5051880;28;20035;-80
2021/12/26 04:10:51;;;;;;;49.22;23.55;;;;;;;-10.75;100.00;99532.06;5068044;28;20029;-80
2021/12/26 04:13:16;;;;;;;62.35;27.10;;;;;;;-10.65;100.00;99555.09;5052692;28;20029;-80
2021/12/26 04:15:42;;;;;;;61.70;27.95;;;;;;;-10.84;100.00;99520.00;5052673;28;20029;-80
2021/12/26 04:18:07;;;;;;;70.20;29.20;;;;;;;-10.64;100.00;99561.00;5052717;28;20112;-80
2021/12/26 04:20:33;;;;;;;54.08;25.10;;;;;;;-10.68;100.00;99554.97;5051097;28;20024;-80
2021/12/26 04:22:59;;;;;;;51.97;27.75;;;;;;;-10.63;100.00;99560.19;5052648;28;20024;-80
2021/12/26 04:25:25;;;;;;;70.22;31.23;;;;;;;-10.57;100.00;99561.28;5052540;28;20031;-80
2021/12/26 04:27:51;;;;;;;56.58;27.08;;;;;;;-10.66;100.00;99550.00;5052169;28;20108;-80
2021/12/26 04:30:18;;;;;;;64.40;27.80;;;;;;;-10.56;100.00;99568.00;5052406;28;20107;-80
2021/12/26 04:32:43;;;;;;;64.70;29.25;;;;;;;-10.67;100.00;99544.09;5052250;28;20029;-80
2021/12/26 04:35:09;;;;;;;62.15;30.63;;;;;;;-10.72;100.00;99538.06;5049775;28;20045;-80
2021/12/26 04:37:35;;;;;;;60.95;29.23;;;;;;;-10.70;100.00;99541.50;5032807;28;20041;-80
2021/12/26 04:40:05;;;;;;;61.10;29.88;;;;;;;-10.59;100.00;99562.00;5049796;28;20052;-80
2021/12/26 04:42:31;;;;;;;59.47;29.52;;;;;;;-10.63;100.00;99553.47;5049429;28;20032;-80
2021/12/26 04:44:56;;;;;;;63.10;29.70;;;;;;;-10.61;100.00;99558.59;5032964;28;20040;-80
2021/12/26 04:47:22;;;;;;;65.60;31.65;;;;;;;-10.69;100.00;99548.25;5049825;28;20500;-80
2021/12/26 04:49:47;;;;;;;66.25;30.10;;;;;;;-10.58;100.00;99578.81;5049489;28;20099;-80
2021/12/26 04:52:13;;;;;;;72.03;31.27;;;;;;;-10.61;100.00;99574.53;5049606;28;20028;-80
2021/12/26 04:54:39;;;;;;;73.85;31.88;;;;;;;-10.72;100.00;99557.34;5049107;28;20091;-81
2021/12/26 04:57:05;;;;;;;66.20;29.80;;;;;;;-10.61;100.00;99583.75;5049278;28;20052;-80
2021/12/26 04:59:30;;;;;;;66.85;28.20;;;;;;;-10.79;100.00;99551.22;5049778;28;20132;-80
2021/12/26 05:01:55;;;;;;;62.97;28.10;;;;;;;-10.58;100.00;99587.22;5049219;28;20040;-80
2021/12/26 05:04:21;;;;;;;55.97;29.60;;;;;;;-10.66;100.00;99581.06;5032712;28;20369;-80
2021/12/26 05:06:47;;;;;;;51.33;26.55;;;;;;;-10.74;100.00;99549.75;5045355;28;20080;-80
2021/12/26 05:09:14;;;;;;;55.97;26.67;;;;;;;-10.60;100.00;99575.41;5052162;28;20028;-80
2021/12/26 05:11:40;;;;;;;50.20;25.70;;;;;;;-10.74;100.00;99556.41;5051563;28;20105;-80
2021/12/26 05:14:06;;;;;;;61.40;29.02;;;;;;;-10.64;100.00;99568.53;5052020;28;20120;-80
2021/12/26 05:16:31;;;;;;;97.40;46.75;;;;;;;-10.64;100.00;99579.47;5051824;28;20124;-80
2021/12/26 05:18:57;;;;;;;119.60;52.45;;;;;;;-10.65;100.00;99579.41;5051574;28;20033;-80
2021/12/26 05:21:22;;;;;;;89.85;43.05;;;;;;;-10.79;100.00;99551.22;5052020;28;20025;-80
2021/12/26 05:23:48;;;;;;;88.63;42.38;;;;;;;-10.67;100.00;99578.47;5051841;28;20464;-80
2021/12/26 05:26:13;;;;;;;75.45;39.28;;;;;;;-10.80;100.00;99554.53;5051723;28;20025;-80
2021/12/26 05:28:39;;;;;;;79.70;39.58;;;;;;;-10.70;100.00;99578.38;5051567;28;20036;-80
2021/12/26 05:31:04;;;;;;;81.50;39.85;;;;;;;-10.73;100.00;99573.25;5050217;28;20499;-80
2021/12/26 05:33:30;;;;;;;77.95;38.55;;;;;;;-10.86;100.00;99556.84;5050396;28;20029;-80
2021/12/26 05:35:55;;;;;;;74.00;38.33;;;;;;;-10.73;100.00;99580.78;5049996;28;20036;-80
2021/12/26 05:38:21;;;;;;;86.22;40.70;;;;;;;-10.91;100.00;99551.63;5051430;28;20072;-80
2021/12/26 05:40:46;;;;;;;79.82;36.40;;;;;;;-10.74;100.00;99596.66;5049814;28;20082;-80
2021/12/26 05:43:12;;;;;;;71.07;34.63;;;;;;;-10.77;100.00;99582.31;5051979;28;20104;-80
2021/12/26 05:45:38;;;;;;;77.03;38.17;;;;;;;-10.71;100.00;99592.59;5053625;28;20461;-80
2021/12/26 05:48:04;;;;;;;66.00;35.35;;;;;;;-10.74;100.00;99590.00;5055585;28;20033;-80
2021/12/26 05:50:29;;;;;;;73.80;36.90;;;;;;;-10.69;100.00;99595.19;5070825;28;20021;-81
2021/12/26 05:52:55;;;;;;;66.35;37.10;;;;;;;-10.70;100.00;99590.94;5053875;28;20077;-80
2021/12/26 05:55:20;;;;;;;80.50;38.92;;;;;;;-10.67;100.00;99588.56;5053978;28;20111;-80
2021/12/26 05:57:46;;;;;;;75.47;37.70;;;;;;;-10.61;100.00;99592.16;5055194;28;20404;-81
2021/12/26 06:00:14;;;;;;;71.63;37.03;;;;;;;-10.73;100.00;99570.72;5055386;28;20033;-80
2021/12/26 06:02:40;;;;;;;74.30;35.95;;;;;;;-10.75;100.00;99577.34;5053604;28;20043;-80
2021/12/26 06:05:06;;;;;;;78.47;36.75;;;;;;;-10.68;100.00;99587.69;5055163;28;20108;-80
2021/12/26 06:07:31;;;;;;;69.65;36.03;;;;;;;-10.62;100.00;99603.03;5055155;28;20063;-80
2021/12/26 06:09:57;;;;;;;73.25;36.65;;;;;;;-10.77;100.00;99577.28;5053548;28;20031;-80
2021/12/26 06:12:22;;;;;;;68.13;36.13;;;;;;;-10.68;100.00;99599.41;5055059;28;20472;-80
2021/12/26 06:14:48;;;;;;;77.07;35.20;;;;;;;-10.67;100.00;99596.09;5053595;28;20052;-81
2021/12/26 06:17:14;;;;;;;75.70;36.42;;;;;;;-10.69;100.00;99593.53;5053651;28;20472;-80
2021/12/26 06:19:39;;;;;;;75.55;37.22;;;;;;;-10.88;100.00;99556.75;5070047;28;20053;-80
2021/12/26 06:22:06;;;;;;;88.88;42.65;;;;;;;-10.61;100.00;99593.81;5072069;28;20051;-80
2021/12/26 06:24:32;;;;;;;76.20;37.30;;;;;;;-10.62;100.00;99580.38;5072336;28;20059;-80
2021/12/26 06:26:57;;;;;;;75.95;36.63;;;;;;;-10.66;100.00;99578.56;5071966;28;20515;-80
2021/12/26 06:29:23;;;;;;;74.40;36.13;;;;;;;-10.54;100.00;99599.91;5072261;28;20028;-80
2021/12/26 06:31:48;;;;;;;75.90;37.25;;;;;;;-10.64;100.00;99581.97;5055212;28;20040;-80
2021/12/26 06:34:14;;;;;;;79.03;37.40;;;;;;;-10.78;100.00;99562.16;5072308;28;20043;-81
2021/12/26 06:36:39;;;;;;;72.72;36.67;;;;;;;-10.55;100.00;99604.09;5071969;28;20063;-80
2021/12/26 06:39:05;;;;;;;92.15;43.75;;;;;;;-10.58;100.00;99597.28;5055332;28;20056;-80
2021/12/26 06:41:31;;;;;;;81.85;40.47;;;;;;;-10.53;100.00;99594.97;5071922;28;20124;-80
2021/12/26 06:43:57;;;;;;;89.88;43.33;;;;;;;-10.62;100.00;99577.00;5071794;28;20262;-80
2021/12/26 06:46:22;;;;;;;105.45;51.00;;;;;;;-10.48;100.00;99603.53;5072025;28;20054;-75
2021/12/26 06:48:48;;;;;;;92.57;45.03;;;;;;;-10.43;100.00;99609.59;5087996;28;20043;-76
2021/12/26 06:51:14;;;;;;;137.82;64.00;;;;;;;-10.52;100.00;99583.22;5092145;28;20590;-76
2021/12/26 06:53:39;;;;;;;244.45;97.40;;;;;;;-10.32;100.00;99610.00;5078406;28;20044;-75
2021/12/26 06:56:05;;;;;;;751.72;310.98;;;;;;;-10.33;100.00;99606.59;5073848;28;20665;-75
2021/12/26 06:58:32;;;;;;;1999.90;705.25;;;;;;;-10.40;100.00;99587.03;5074403;28;20063;-75
2021/12/26 07:00:57;;;;;;;1456.45;528.47;;;;;;;-10.21;100.00;99608.66;5074204;28;20451;-75
2021/12/26 07:03:23;;;;;;;929.88;333.52;;;;;;;-10.16;100.00;99616.38;5074309;28;20017;-75
2021/12/26 07:05:48;;;;;;;639.25;234.60;;;;;;;-10.08;100.00;99620.88;5073873;28;20037;-75
2021/12/26 07:08:14;;;;;;;588.92;206.27;;;;;;;-10.12;100.00;99616.53;5073865;28;20051;-75
2021/12/26 07:10:39;;;;;;;819.38;355.25;;;;;;;-9.98;100.00;99634.66;5074230;28;20040;-75
2021/12/26 07:13:05;;;;;;;1113.78;416.25;;;;;;;-9.92;100.00;99623.94;5074039;28;20445;-80
2021/12/26 07:15:30;;;;;;;831.80;289.50;;;;;;;-9.78;100.00;99629.44;5073769;28;20103;-80
2021/12/26 07:17:56;;;;;;;534.80;163.25;;;;;;;-9.81;100.00;99597.44;5073816;28;20024;-80
2021/12/26 07:20:21;;;;;;;472.70;142.65;;;;;;;-9.56;100.00;99621.81;5072342;28;20070;-80
2021/12/26 07:22:47;;;;;;;404.02;115.85;;;;;;;-9.51;100.00;99621.97;5073450;28;20020;-80
2021/12/26 07:25:13;;;;;;;345.65;112.40;;;;;;;-9.43;100.00;99628.09;5073975;28;20025;-80
2021/12/26 07:27:40;;;;;;;437.80;148.43;;;;;;;-9.37;100.00;99630.81;5073820;28;20214;-80
2021/12/26 07:30:06;;;;;;;577.78;214.25;;;;;;;-9.32;100.00;99641.91;5073474;28;20033;-79
2021/12/26 07:32:32;;;;;;;479.20;155.75;;;;;;;-9.35;100.00;99631.75;5073495;28;20028;-80
2021/12/26 07:34:58;;;;;;;581.00;203.32;;;;;;;-9.43;100.00;99613.84;5073183;28;20386;-80
2021/12/26 07:37:24;;;;;;;338.02;97.60;;;;;;;-9.28;100.00;99630.25;5071899;28;20027;-79
2021/12/26 07:39:50;;;;;;;277.80;84.63;;;;;;;-9.09;100.00;99643.50;5054438;28;20166;-79
2021/12/26 07:42:15;;;;;;;234.75;77.93;;;;;;;-8.81;100.00;99647.72;5052275;28;20111;-79
2021/12/26 07:44:41;;;;;;;276.35;125.40;;;;;;;-8.56;100.00;99645.94;5053391;28;20502;-79
2021/12/26 07:47:07;;;;;;;179.13;98.40;;;;;;;-8.40;100.00;99635.47;5053128;28;20542;-79
2021/12/26 07:49:32;;;;;;;300.63;109.75;;;;;;;-8.10;100.00;99637.97;5053244;28;20120;-79
2021/12/26 07:51:58;;;;;;;274.60;123.18;;;;;;;-7.92;100.00;99631.69;5053096;28;20393;-79
2021/12/26 07:54:25;;;;;;;211.25;77.15;;;;;;;-7.70;100.00;99628.94;5053352;28;20151;-79
2021/12/26 07:56:52;;;;;;;185.98;79.47;;;;;;;-7.54;100.00;99622.63;5052841;28;20045;-79
2021/12/26 07:59:17;;;;;;;188.35;97.68;;;;;;;-7.46;100.00;99612.66;5053331;28;20021;-80
2021/12/26 08:01:43;;;;;;;164.40;87.50;;;;;;;-7.22;100.00;99642.78;5052827;28;20036;-79
2021/12/26 08:04:10;;;;;;;324.83;125.50;;;;;;;-7.14;100.00;99637.09;5052890;28;20412;-79
2021/12/26 08:06:36;;;;;;;276.20;107.90;;;;;;;-6.99;100.00;99635.72;5051392;28;20025;-79
2021/12/26 08:09:02;;;;;;;201.68;79.43;;;;;;;-6.93;100.00;99621.53;5052160;28;20048;-79
2021/12/26 08:11:28;;;;;;;107.70;50.92;;;;;;;-6.74;100.00;99620.28;5053049;28;20033;-80
2021/12/26 08:13:53;;;;;;;80.85;41.30;;;;;;;-6.68;100.00;99620.41;5051294;28;20108;-80
2021/12/26 08:16:18;;;;;;;74.80;38.55;;;;;;;-6.75;100.00;99595.75;5052628;28;20029;-79
2021/12/26 08:18:44;;;;;;;88.35;41.83;;;;;;;-6.73;100.00;99596.66;5051010;28;20067;-79
2021/12/26 08:21:10;;;;;;;84.45;40.38;;;;;;;-6.75;100.00;99598.31;5052425;28;20111;-79
2021/12/26 08:23:36;;;;;;;83.78;39.28;;;;;;;-6.65;100.00;99617.97;5052794;28;20025;-79
2021/12/26 08:26:02;;;;;;;83.90;42.58;;;;;;;-6.76;100.00;99613.47;5052487;28;20021;-78
2021/12/26 08:28:27;;;;;;;158.88;75.03;;;;;;;-6.70;100.00;99623.72;5052593;28;20048;-78
2021/12/26 08:30:53;;;;;;;160.07;79.05;;;;;;;-6.67;100.00;99628.88;5050925;28;20063;-79
2021/12/26 08:33:19;;;;;;;93.55;42.70;;;;;;;-6.76;100.00;99600.81;5052405;28;20135;-78
2021/12/26 08:35:48;;;;;;;68.03;34.50;;;;;;;-6.67;100.00;99613.66;5052057;28;20033;-79
2021/12/26 08:38:16;;;;;;;69.15;35.47;;;;;;;-6.65;100.00;99619.63;5052677;28;20498;-80
2021/12/26 08:40:43;;;;;;;66.90;34.15;;;;;;;-6.69;100.00;99621.25;5052581;28;20103;-80
2021/12/26 08:43:09;;;;;;;66.28;33.28;;;;;;;-6.77;100.00;99620.22;5052433;28;20022;-79
2021/12/26 08:45:36;;;;;;;68.80;33.63;;;;;;;-6.89;100.00;99614.88;5052167;28;20033;-80
2021/12/26 08:48:02;;;;;;;77.72;36.55;;;;;;;-7.02;100.00;99613.75;5051557;28;20332;-80
2021/12/26 08:50:28;;;;;;;65.10;32.58;;;;;;;-7.05;100.00;99608.59;5051126;28;20056;-80
2021/12/26 08:52:54;;;;;;;92.75;40.97;;;;;;;-7.00;100.00;99632.34;5052109;28;20455;-80
2021/12/26 08:55:20;;;;;;;63.33;29.27;;;;;;;-7.17;100.00;99606.63;5052274;28;20032;-80
2021/12/26 08:57:47;;;;;;;90.85;40.05;;;;;;;-7.10;100.00;99630.41;5050370;28;20101;-80
2021/12/26 09:00:14;;;;;;;92.55;40.17;;;;;;;-7.17;100.00;99618.44;5062588;28;20479;-78
2021/12/26 09:02:40;;;;;;;122.10;57.10;;;;;;;-7.21;100.00;99614.13;5082867;28;20024;-78
2021/12/26 09:05:06;;;;;;;128.38;60.72;;;;;;;-7.06;100.00;99637.28;5079268;28;20387;-78
2021/12/26 09:07:33;;;;;;;114.78;64.60;;;;;;;-7.07;100.00;99636.41;5072084;28;20495;-79
2021/12/26 09:10:00;;;;;;;94.22;52.53;;;;;;;-7.09;100.00;99632.97;5088043;28;20024;-78
2021/12/26 09:12:26;;;;;;;92.97;45.05;;;;;;;-7.00;100.00;99636.56;5091493;28;20039;-79
2021/12/26 09:14:54;;;;;;;74.95;36.95;;;;;;;-7.08;100.00;99621.19;5092927;28;20560;-79
2021/12/26 09:17:22;;;;;;;64.82;33.70;;;;;;;-7.07;100.00;99626.28;5081570;28;20044;-79
2021/12/26 09:19:50;;;;;;;72.70;40.25;;;;;;;-6.92;100.00;99640.97;5071792;28;20028;-79
2021/12/26 09:22:25;;;;;;;76.00;37.85;;;;;;;-6.94;100.00;99632.50;5069665;28;20068;-79
2021/12/26 09:24:52;;;;;;;70.30;38.53;;;;;;;-6.85;100.00;99635.22;5071562;28;20444;-79
2021/12/26 09:27:19;;;;;;;86.65;44.17;;;;;;;-6.76;100.00;99637.13;5071592;28;20024;-78
2021/12/26 09:29:45;;;;;;;85.20;45.55;;;;;;;-6.77;100.00;99635.41;5086022;28;20090;-78
2021/12/26 09:32:10;;;;;;;105.78;55.55;;;;;;;-6.77;100.00;99630.34;5061955;28;20044;-78
2021/12/26 09:34:37;;;;;;;88.35;46.42;;;;;;;-6.70;100.00;99642.34;5070571;28;20023;-78
2021/12/26 09:37:05;;;;;;;81.82;43.65;;;;;;;-6.71;100.00;99637.22;5091649;28;20028;-77
2021/12/26 09:39:31;;;;;;;61.20;30.45;;;;;;;-6.79;100.00;99614.25;5091822;28;20025;-79
2021/12/26 09:41:56;;;;;;;53.53;31.75;;;;;;;-6.64;100.00;99632.31;5091559;28;20032;-79
2021/12/26 09:44:22;;;;;;;54.38;28.23;;;;;;;-6.58;100.00;99640.03;5090311;28;20028;-78
2021/12/26 09:46:48;;;;;;;55.67;29.55;;;;;;;-6.67;100.00;99624.66;5090394;28;20031;-79
2021/12/26 09:49:14;;;;;;;57.13;29.60;;;;;;;-6.64;100.00;99627.25;5091847;28;20077;-78
2021/12/26 09:51:40;;;;;;;67.68;35.75;;;;;;;-6.51;100.00;99638.50;5091843;28;20472;-79
2021/12/26 09:54:07;;;;;;;104.70;44.42;;;;;;;-6.51;100.00;99635.97;5091741;28;20032;-79
2021/12/26 09:56:33;;;;;;;118.60;47.22;;;;;;;-6.47;100.00;99629.31;5090097;28;20387;-79
2021/12/26 09:59:09;;;;;;;72.88;35.13;;;;;;;-6.53;100.00;99610.63;5090013;28;20021;-78
2021/12/26 10:01:41;;;;;;;61.13;29.73;;;;;;;-6.43;100.00;99631.06;5089351;28;20056;-78
2021/12/26 10:04:26;;;;;;;79.28;33.50;;;;;;;-6.37;100.00;99641.34;5091840;28;20061;-78
2021/12/26 10:07:00;;;;;;;67.47;33.67;;;;;;;-6.38;100.00;99626.97;5062865;28;20032;-78
2021/12/26 10:09:26;;;;;;;54.38;27.02;;;;;;;-6.44;100.00;99619.25;5085371;28;20024;-78
2021/12/26 10:11:57;;;;;;;66.35;34.67;;;;;;;-6.37;100.00;99623.59;5091403;28;20028;-78
2021/12/26 10:14:29;;;;;;;53.95;26.70;;;;;;;-6.38;100.00;99624.41;5091681;28;20388;-78
2021/12/26 10:16:58;;;;;;;68.03;31.23;;;;;;;-6.30;100.00;99644.03;5091307;28;20032;-79
2021/12/26 10:19:24;;;;;;;76.00;40.75;;;;;;;-6.32;100.00;99637.22;5091822;28;20028;-78
2021/12/26 10:22:01;;;;;;;72.22;35.30;;;;;;;-6.35;100.00;99616.88;5091111;28;20081;-78
2021/12/26 10:24:29;;;;;;;68.80;34.95;;;;;;;-6.22;100.00;99636.59;5090303;28;20027;-78
2021/12/26 10:27:04;;;;;;;74.22;35.80;;;;;;;-6.24;100.00;99628.09;5091176;28;20035;-78
2021/12/26 10:29:38;;;;;;;136.25;61.35;;;;;;;-6.19;100.00;99629.06;5091458;28;20141;-78
2021/12/26 10:32:06;;;;;;;129.15;58.20;;;;;;;-6.13;100.00;99634.22;5091548;28;20044;-78
2021/12/26 10:34:59;;;;;;;89.22;45.78;;;;;;;-6.11;100.00;99636.78;5093603;28;20120;-78
2021/12/26 10:37:28;;;;;;;92.22;44.38;;;;;;;-6.22;100.00;99615.47;5094929;28;20028;-78
2021/12/26 10:39:58;;;;;;;89.07;43.40;;;;;;;-6.04;100.00;99634.41;5094731;28;20024;-79
2021/12/26 10:42:28;;;;;;;67.90;33.13;;;;;;;-6.10;100.00;99623.31;5094911;28;20032;-78
2021/12/26 10:44:58;;;;;;;75.88;35.30;;;;;;;-5.97;100.00;99637.09;5094607;28;20429;-78
2021/12/26 10:47:26;;;;;;;70.47;33.75;;;;;;;-6.13;100.00;99611.41;5093681;28;20031;-78
2021/12/26 10:49:58;;;;;;;72.25;34.58;;;;;;;-5.99;100.00;99629.44;5094647;28;20024;-79
2021/12/26 10:52:32;;;;;;;64.78;32.47;;;;;;;-5.98;100.00;99631.16;5094790;28;20390;-78
2021/12/26 10:55:04;;;;;;;72.45;33.38;;;;;;;-5.95;100.00;99625.28;5094638;28;20107;-79
2021/12/26 10:57:36;;;;;;;75.20;34.58;;;;;;;-6.05;100.00;99598.91;5094685;28;20043;-79
2021/12/26 11:00:12;;;;;;;75.75;35.83;;;;;;;-5.86;100.00;99627.94;5093174;28;20757;-79
2021/12/26 11:02:40;;;;;;;68.50;33.05;;;;;;;-5.90;100.00;99621.09;5094666;28;20111;-79